Time;durP1;ratioP1;P1;durP2;ratioP2;P2;SDS_P1;SDS_P2;PMS_P1;PMS_P2;Temp;Humidity;BMP_temperature;BMP_pressure;BME280_temperature;BME280_humidity;BME280_pressure;Samples;Min_cycle;Max_cycle;Signal;HPM_P1;HPM_P2
2023/01/05 00:02:28;;;;;;;6.45;2.10;;;13.90;79.40;;;;;;5039952;28;20029;-88
2023/01/05 00:04:59;;;;;;;7.00;2.67;;;13.90;79.40;;;;;;5056532;28;20025;-89
2023/01/05 00:07:27;;;;;;;6.40;2.17;;;13.80;79.30;;;;;;5055891;28;20044;-89
2023/01/05 00:10:10;;;;;;;4.65;1.80;;;13.80;79.40;;;;;;5055983;28;20112;-89
2023/01/05 00:24:31;;;;;;;8.05;2.40;;;13.70;79.30;;;;;;5055194;28;20123;-89
2023/01/05 00:26:58;;;;;;;4.82;2.03;;;13.80;79.40;;;;;;5055867;28;20034;-89
2023/01/05 00:29:38;;;;;;;5.55;2.20;;;13.80;79.40;;;;;;5056839;28;20031;-88
2023/01/05 00:32:24;;;;;;;4.50;1.95;;;13.70;79.40;;;;;;5061290;28;20025;-89
2023/01/05 00:35:03;;;;;;;;;;;;;;;;;;;;;
2023/01/05 00:37:34;;;;;;;4.88;1.88;;;13.70;79.30;;;;;;5055501;28;20545;-89
2023/01/05 00:40:22;;;;;;;7.43;2.10;;;13.70;79.40;;;;;;5056057;28;20017;-89
2023/01/05 00:42:52;;;;;;;4.85;1.75;;;13.70;79.40;;;;;;5055451;28;20036;-88
2023/01/05 00:45:22;;;;;;;6.93;2.10;;;13.70;79.30;;;;;;5054331;28;20473;-89
2023/01/05 00:47:50;;;;;;;6.13;2.40;;;13.70;79.40;;;;;;5038327;28;20511;-90
2023/01/05 00:50:26;;;;;;;4.47;1.92;;;13.70;79.40;;;;;;5071317;28;20033;-89
2023/01/05 00:52:55;;;;;;;6.65;2.13;;;13.60;79.30;;;;;;5038949;28;20029;-89
2023/01/05 00:55:23;;;;;;;7.65;2.15;;;13.60;79.30;;;;;;5055675;28;20103;-89
2023/01/05 00:57:54;;;;;;;5.47;2.08;;;13.60;79.40;;;;;;5038613;28;20044;-89
2023/01/05 01:00:30;;;;;;;5.97;2.15;;;13.60;79.40;;;;;;5054712;28;20055;-90
2023/01/05 01:03:07;;;;;;;6.10;2.38;;;13.60;79.40;;;;;;5040627;28;20063;-89
2023/01/05 01:05:39;;;;;;;5.47;2.72;;;13.60;79.40;;;;;;5054945;28;20068;-89
2023/01/05 01:08:10;;;;;;;6.40;2.13;;;13.60;79.40;;;;;;5070994;28;20029;-88
2023/01/05 01:10:43;;;;;;;4.63;2.22;;;13.50;79.40;;;;;;5055032;28;20465;-90
2023/01/05 01:13:13;;;;;;;5.97;1.83;;;13.50;79.40;;;;;;5039024;28;20028;-89
2023/01/05 01:15:46;;;;;;;7.25;2.33;;;13.50;79.40;;;;;;5055135;28;20052;-89
2023/01/05 01:18:17;;;;;;;5.70;2.20;;;13.50;79.40;;;;;;5039406;28;20523;-89
2023/01/05 01:20:55;;;;;;;5.50;2.20;;;13.50;79.40;;;;;;5080530;28;20033;-88
2023/01/05 01:23:44;;;;;;;8.20;2.53;;;13.50;79.40;;;;;;5064063;28;20029;-89
2023/01/05 01:26:15;;;;;;;5.85;2.10;;;13.50;79.40;;;;;;5054329;28;20025;-89
2023/01/05 01:28:56;;;;;;;3.85;1.83;;;13.50;79.40;;;;;;5054207;28;20539;-89
2023/01/05 01:31:29;;;;;;;4.88;2.28;;;13.50;79.40;;;;;;5070914;28;20483;-90
2023/01/05 01:33:57;;;;;;;4.97;1.98;;;13.40;79.30;;;;;;5071104;28;20130;-89
2023/01/05 01:36:25;;;;;;;6.60;2.20;;;13.40;79.30;;;;;;5037440;28;20102;-89
2023/01/05 01:38:53;;;;;;;5.70;2.05;;;13.40;79.30;;;;;;5053939;28;20036;-89
2023/01/05 01:41:24;;;;;;;6.07;1.75;;;13.40;79.40;;;;;;5071512;28;20051;-89
2023/01/05 01:43:55;;;;;;;3.50;2.03;;;13.40;79.40;;;;;;5054713;28;20032;-89
2023/01/05 01:46:30;;;;;;;6.07;2.35;;;13.40;79.40;;;;;;5054445;28;20445;-87
2023/01/05 01:49:11;;;;;;;6.05;2.40;;;13.40;79.40;;;;;;5039277;28;20040;-89
2023/01/05 01:51:54;;;;;;;5.47;2.17;;;13.40;79.40;;;;;;5070542;28;20083;-89
2023/01/05 01:54:46;;;;;;;6.00;2.35;;;13.30;79.30;;;;;;5038960;28;20036;-89
2023/01/05 01:57:13;;;;;;;5.55;1.98;;;13.30;79.30;;;;;;5038835;28;20136;-89
2023/01/05 01:59:40;;;;;;;4.13;1.73;;;13.30;79.30;;;;;;5053636;28;20090;-89
2023/01/05 02:02:17;;;;;;;5.90;2.53;;;13.30;79.30;;;;;;5054476;28;20031;-88
2023/01/05 02:04:46;;;;;;;6.82;2.20;;;13.30;79.30;;;;;;5054133;28;20473;-90
2023/01/05 02:07:37;;;;;;;4.57;1.90;;;13.30;79.40;;;;;;5070119;28;20052;-90
2023/01/05 02:10:08;;;;;;;6.20;2.30;;;13.30;79.40;;;;;;5054129;28;20037;-89
2023/01/05 02:13:14;;;;;;;5.80;2.00;;;13.30;79.40;;;;;;5039207;28;20036;-88
2023/01/05 02:16:17;;;;;;;6.35;2.00;;;13.30;79.40;;;;;;5053313;28;20024;-89
2023/01/05 02:19:02;;;;;;;3.70;1.73;;;13.20;79.30;;;;;;5052900;28;20140;-89
2023/01/05 02:22:01;;;;;;;5.82;1.90;;;13.20;79.30;;;;;;5053089;28;20421;-89
2023/01/05 02:24:47;;;;;;;3.38;1.63;;;13.20;79.30;;;;;;5053909;28;20033;-89
2023/01/05 02:27:32;;;;;;;4.28;1.88;;;13.20;79.30;;;;;;5053062;28;20036;-90
2023/01/05 02:30:24;;;;;;;5.35;1.85;;;13.20;79.30;;;;;;5053632;28;20504;-88
2023/01/05 02:33:20;;;;;;;5.30;2.10;;;13.20;79.30;;;;;;5054012;28;20075;-88
2023/01/05 02:36:00;;;;;;;7.43;2.50;;;13.20;79.40;;;;;;5053629;28;20027;-88
2023/01/05 02:38:49;;;;;;;4.03;2.08;;;13.20;79.40;;;;;;5070691;28;20037;-89
2023/01/05 02:41:23;;;;;;;3.83;2.15;;;13.20;79.40;;;;;;5055421;28;20079;-89
2023/01/05 02:43:56;;;;;;;4.43;1.98;;;13.20;80.00;;;;;;5054868;28;20079;-91
2023/01/05 02:46:27;;;;;;;6.65;2.22;;;13.10;79.30;;;;;;5070184;28;20044;-90
2023/01/05 02:48:57;;;;;;;5.80;2.15;;;13.10;79.30;;;;;;5036598;28;20390;-89
2023/01/05 02:51:54;;;;;;;8.57;2.50;;;13.10;79.40;;;;;;5053483;28;20128;-90
2023/01/05 02:54:40;;;;;;;6.65;2.17;;;13.20;79.40;;;;;;5053609;28;20032;-89
2023/01/05 02:57:16;;;;;;;5.07;1.70;;;13.10;79.30;;;;;;5053039;28;20033;-89
2023/01/05 02:59:53;;;;;;;5.50;2.60;;;13.10;79.30;;;;;;5053201;28;20542;-88
2023/01/05 03:02:42;;;;;;;5.35;1.98;;;13.10;79.30;;;;;;5052956;28;20029;-88
2023/01/05 03:05:22;;;;;;;4.75;1.60;;;13.10;79.40;;;;;;5053420;28;20029;-89
2023/01/05 03:08:20;;;;;;;6.03;2.40;;;13.10;79.30;;;;;;5053519;28;20029;-88
2023/01/05 03:14:47;;;;;;;;;;;;;;;;;;;;;
2023/01/05 03:17:46;;;;;;;4.88;2.00;;;13.10;79.40;;;;;;5047508;28;20132;-89
2023/01/05 03:20:40;;;;;;;5.03;1.73;;;13.10;79.40;;;;;;5056597;28;20033;-87
2023/01/05 03:35:32;;;;;;;5.40;1.98;;;13.10;79.50;;;;;;5056159;28;20075;-88
2023/01/05 03:38:21;;;;;;;;;;;;;;;;;;;;;
2023/01/05 03:40:54;;;;;;;5.97;1.77;;;13.10;79.50;;;;;;5056754;28;20044;-90
2023/01/05 03:43:43;;;;;;;4.70;1.95;;;13.10;79.40;;;;;;5043357;28;20032;-90
2023/01/05 03:46:37;;;;;;;5.30;2.13;;;13.10;79.40;;;;;;5056977;28;20029;-89
2023/01/05 03:49:05;;;;;;;4.45;1.95;;;13.10;79.50;;;;;;5055933;28;20029;-89
2023/01/05 03:51:41;;;;;;;5.38;2.00;;;13.10;79.40;;;;;;5041090;28;20462;-89
2023/01/05 03:54:13;;;;;;;4.78;2.03;;;13.10;79.40;;;;;;5056520;28;20028;-89
2023/01/05 03:56:57;;;;;;;4.43;2.00;;;13.10;79.40;;;;;;5087648;28;20045;-89
2023/01/05 03:59:39;;;;;;;4.63;2.35;;;13.10;79.50;;;;;;5041662;28;20509;-89
2023/01/05 04:02:30;;;;;;;5.68;2.38;;;13.10;79.50;;;;;;5042682;28;20068;-90
2023/01/05 04:05:04;;;;;;;6.22;2.05;;;13.10;79.40;;;;;;5056696;28;20449;-89
2023/01/05 04:07:53;;;;;;;;;;;;;;;;;;;;;
2023/01/05 04:10:38;;;;;;;6.05;2.40;;;13.10;79.50;;;;;;5056112;28;20453;-90
2023/01/05 04:13:18;;;;;;;;;;;;;;;;;;;;;
2023/01/05 04:16:03;;;;;;;5.60;2.15;;;13.10;79.40;;;;;;5056299;28;20033;-89
2023/01/05 04:19:09;;;;;;;7.10;2.20;;;13.10;79.50;;;;;;5055893;28;20044;-88
2023/01/05 04:21:43;;;;;;;4.55;1.85;;;13.00;79.40;;;;;;5058792;28;20044;-88
2023/01/05 04:24:54;;;;;;;5.05;1.85;;;13.10;79.40;;;;;;5040234;28;20202;-89
2023/01/05 04:27:33;;;;;;;5.45;1.90;;;13.10;79.50;;;;;;5056162;28;20047;-90
2023/01/05 04:30:17;;;;;;;;;;;;;;;;;;;;;
2023/01/05 04:33:04;;;;;;;6.68;2.45;;;13.10;79.40;;;;;;5056302;28;20029;-90
2023/01/05 04:35:44;;;;;;;6.75;2.53;;;13.10;79.40;;;;;;5055051;28;20039;-90
2023/01/05 04:38:17;;;;;;;6.13;1.85;;;13.10;79.40;;;;;;5055786;28;20037;-89
2023/01/05 04:40:48;;;;;;;4.80;1.83;;;13.10;79.40;;;;;;5056430;28;20069;-89
2023/01/05 04:43:21;;;;;;;5.63;2.10;;;13.00;79.40;;;;;;5055723;28;20053;-89
2023/01/05 04:45:54;;;;;;;5.32;2.22;;;13.10;79.50;;;;;;5055058;28;20032;-88
2023/01/05 04:48:26;;;;;;;9.82;3.13;;;13.00;79.40;;;;;;5040329;28;20037;-89
2023/01/05 04:50:55;;;;;;;4.07;2.08;;;13.00;79.40;;;;;;5055242;28;20021;-88
2023/01/05 04:53:32;;;;;;;5.35;1.95;;;13.10;79.50;;;;;;5056224;28;20025;-91
2023/01/05 04:56:10;;;;;;;5.32;2.15;;;13.00;79.40;;;;;;5062441;28;20025;-88
2023/01/05 04:58:42;;;;;;;6.13;2.75;;;13.00;79.50;;;;;;5071819;28;20057;-89
2023/01/05 05:01:18;;;;;;;5.72;2.30;;;13.10;79.50;;;;;;5055721;28;20059;-89
2023/01/05 05:03:55;;;;;;;6.07;2.25;;;13.00;79.50;;;;;;5054647;28;20048;-89
2023/01/05 05:06:41;;;;;;;4.38;1.77;;;13.00;79.50;;;;;;5038719;28;20024;-89
2023/01/05 05:09:15;;;;;;;4.40;2.17;;;13.00;79.50;;;;;;5072387;28;20472;-89
2023/01/05 05:11:46;;;;;;;6.15;2.15;;;13.00;79.40;;;;;;5055151;28;20029;-89
2023/01/05 05:14:18;;;;;;;3.95;2.10;;;13.00;79.50;;;;;;5039889;28;20115;-88
2023/01/05 05:16:49;;;;;;;5.32;2.20;;;13.00;79.50;;;;;;5071198;28;20039;-89
2023/01/05 05:19:21;;;;;;;4.78;2.22;;;13.00;79.50;;;;;;5022670;28;20381;-87
2023/01/05 05:21:53;;;;;;;5.15;2.08;;;13.00;79.40;;;;;;5055742;28;20445;-89
2023/01/05 05:24:29;;;;;;;5.22;1.95;;;13.10;79.50;;;;;;5054754;28;20116;-89
2023/01/05 05:27:07;;;;;;;6.22;2.10;;;13.00;79.50;;;;;;5054395;28;20539;-90
2023/01/05 05:29:43;;;;;;;4.47;1.92;;;13.00;79.50;;;;;;5055271;28;20025;-89
2023/01/05 05:32:30;;;;;;;4.13;1.70;;;13.00;79.40;;;;;;5053639;28;20021;-89
2023/01/05 05:35:01;;;;;;;5.40;2.20;;;13.00;79.50;;;;;;5055740;28;20033;-89
2023/01/05 05:37:41;;;;;;;4.72;1.95;;;13.00;79.50;;;;;;5054946;28;20044;-89
2023/01/05 05:40:22;;;;;;;5.20;2.20;;;13.00;79.50;;;;;;5040691;28;20488;-89
2023/01/05 05:42:53;;;;;;;5.05;2.03;;;13.00;79.50;;;;;;5053809;28;20025;-90
2023/01/05 05:45:26;;;;;;;5.63;2.22;;;13.00;79.50;;;;;;5054537;28;20024;-88
2023/01/05 05:48:05;;;;;;;6.03;2.03;;;13.00;79.50;;;;;;5071484;28;20048;-89
2023/01/05 05:50:34;;;;;;;4.35;1.98;;;13.00;79.50;;;;;;5038503;28;20032;-88
2023/01/05 05:53:22;;;;;;;4.15;1.95;;;13.00;79.50;;;;;;5054455;28;20078;-88
2023/01/05 05:55:59;;;;;;;4.80;2.00;;;13.00;79.50;;;;;;5039986;28;20508;-89
2023/01/05 05:58:33;;;;;;;6.05;2.00;;;13.00;79.50;;;;;;5054659;28;20104;-89
2023/01/05 06:01:04;;;;;;;5.15;1.92;;;13.00;79.50;;;;;;5038005;28;20037;-89
2023/01/05 06:03:30;;;;;;;5.38;2.33;;;13.00;79.50;;;;;;5053856;28;20029;-89
2023/01/05 06:05:58;;;;;;;5.32;1.98;;;13.00;80.10;;;;;;5053802;28;20025;-88
2023/01/05 06:08:38;;;;;;;;;;;;;;;;;;;;;
2023/01/05 06:11:12;;;;;;;4.43;2.50;;;13.00;79.50;;;;;;5053929;28;20075;-88
2023/01/05 06:13:41;;;;;;;7.35;2.45;;;13.00;79.50;;;;;;5054719;28;20530;-89
2023/01/05 06:16:09;;;;;;;4.40;1.90;;;13.00;80.10;;;;;;5062904;28;20045;-89
2023/01/05 06:18:40;;;;;;;5.70;2.10;;;13.00;79.50;;;;;;5067079;28;20047;-89
2023/01/05 06:21:14;;;;;;;4.55;2.28;;;13.00;79.50;;;;;;5053797;28;20037;-89
2023/01/05 06:23:48;;;;;;;4.27;2.00;;;13.00;79.50;;;;;;5053586;28;20021;-89
2023/01/05 06:26:26;;;;;;;5.25;2.03;;;13.00;79.50;;;;;;5038013;28;20314;-88
2023/01/05 06:28:55;;;;;;;5.55;2.20;;;13.00;79.50;;;;;;5053800;28;20507;-88
2023/01/05 06:31:23;;;;;;;9.18;2.65;;;13.00;79.50;;;;;;5053527;28;20025;-88
2023/01/05 06:33:54;;;;;;;4.93;2.20;;;13.00;79.50;;;;;;5086123;28;20033;-88
2023/01/05 06:36:30;;;;;;;5.47;1.95;;;13.00;79.50;;;;;;5070613;28;20021;-88
2023/01/05 06:39:01;;;;;;;5.88;2.00;;;13.00;79.60;;;;;;5037604;28;20040;-89
2023/01/05 06:41:29;;;;;;;5.72;2.00;;;13.00;79.50;;;;;;5036722;28;20057;-87
2023/01/05 06:44:05;;;;;;;5.03;2.25;;;13.00;79.60;;;;;;5053377;28;20028;-88
2023/01/05 06:46:31;;;;;;;4.95;2.63;;;13.00;79.50;;;;;;5020731;28;20041;-87
2023/01/05 06:48:57;;;;;;;5.93;2.13;;;13.00;79.50;;;;;;5054009;28;20033;-88
2023/01/05 06:51:23;;;;;;;4.93;2.05;;;13.00;79.50;;;;;;5053326;28;20393;-88
2023/01/05 06:53:56;;;;;;;4.18;2.05;;;13.00;79.50;;;;;;5037425;28;20029;-88
2023/01/05 06:56:25;;;;;;;6.25;1.92;;;13.00;79.50;;;;;;5020447;28;20025;-88
2023/01/05 06:58:52;;;;;;;6.43;2.20;;;13.00;79.50;;;;;;5063621;28;20045;-87
2023/01/05 07:01:23;;;;;;;5.60;2.28;;;13.00;79.50;;;;;;5057324;28;20025;-87
2023/01/05 07:03:50;;;;;;;5.30;1.98;;;13.00;79.60;;;;;;5053373;28;20029;-88
2023/01/05 07:06:27;;;;;;;5.28;2.10;;;13.00;79.50;;;;;;5055279;28;20046;-87
2023/01/05 07:08:55;;;;;;;3.15;1.63;;;13.00;79.50;;;;;;5059571;28;20037;-88
2023/01/05 07:11:34;;;;;;;5.35;2.30;;;13.00;79.60;;;;;;5053929;28;20029;-88
2023/01/05 07:14:09;;;;;;;6.30;2.17;;;13.00;79.50;;;;;;5036247;28;20029;-88
2023/01/05 07:16:38;;;;;;;5.95;2.03;;;13.00;79.50;;;;;;5052822;28;20029;-87
2023/01/05 07:19:12;;;;;;;5.00;2.22;;;13.00;79.60;;;;;;5052916;28;20120;-88
2023/01/05 07:21:43;;;;;;;7.47;2.25;;;13.00;79.50;;;;;;5036942;28;20112;-88
2023/01/05 07:24:12;;;;;;;4.55;2.30;;;13.00;79.50;;;;;;5052705;28;20021;-87
2023/01/05 07:26:46;;;;;;;6.10;2.10;;;13.00;79.50;;;;;;5052771;28;20047;-88
2023/01/05 07:29:12;;;;;;;3.88;1.90;;;13.00;79.60;;;;;;5035915;28;20414;-87
2023/01/05 07:31:38;;;;;;;4.40;1.90;;;13.00;79.50;;;;;;5036339;28;20070;-86
2023/01/05 07:34:06;;;;;;;4.57;1.77;;;13.00;79.50;;;;;;5052856;28;20060;-87
2023/01/05 07:36:32;;;;;;;4.30;1.80;;;13.00;79.50;;;;;;5052698;28;20104;-88
2023/01/05 07:38:58;;;;;;;4.28;2.10;;;13.00;79.50;;;;;;5053263;28;20025;-89
2023/01/05 07:41:24;;;;;;;8.60;2.42;;;13.00;79.60;;;;;;5053174;28;20397;-88
2023/01/05 07:43:50;;;;;;;5.15;1.92;;;13.00;79.50;;;;;;5053124;28;20033;-88
2023/01/05 07:46:19;;;;;;;6.18;1.98;;;13.00;79.60;;;;;;5052749;28;20032;-89
2023/01/05 07:48:47;;;;;;;5.00;2.05;;;13.00;79.60;;;;;;5053019;28;20040;-89
2023/01/05 07:51:13;;;;;;;6.07;1.95;;;13.00;79.50;;;;;;5052407;28;20021;-91
2023/01/05 07:53:39;;;;;;;4.57;1.92;;;13.00;79.50;;;;;;5053068;28;20040;-88
2023/01/05 07:56:09;;;;;;;6.50;2.55;;;13.00;79.60;;;;;;5055993;28;20404;-90
2023/01/05 07:58:35;;;;;;;7.68;2.38;;;13.00;79.60;;;;;;5056271;28;20057;-89
2023/01/05 08:01:04;;;;;;;5.18;1.90;;;13.00;79.60;;;;;;5040283;28;20075;-88
2023/01/05 08:03:30;;;;;;;7.03;2.63;;;13.00;79.60;;;;;;5055838;28;20032;-89
2023/01/05 08:05:56;;;;;;;5.30;2.33;;;13.00;79.50;;;;;;5056269;28;20021;-88
2023/01/05 08:08:24;;;;;;;6.43;2.35;;;13.00;79.50;;;;;;5040344;28;20048;-88
2023/01/05 08:10:50;;;;;;;7.32;2.33;;;13.00;79.60;;;;;;5038983;28;20036;-87
2023/01/05 08:16:01;;;;;;;5.18;2.33;;;13.00;79.50;;;;;;5055620;28;20049;-89
2023/01/05 08:18:29;;;;;;;4.63;1.98;;;13.10;79.60;;;;;;5056422;28;20035;-88
2023/01/05 08:20:59;;;;;;;6.22;2.13;;;13.00;79.50;;;;;;5038912;28;20242;-89
2023/01/05 08:23:26;;;;;;;5.38;1.95;;;13.00;79.60;;;;;;5055722;28;20024;-88
2023/01/05 08:25:55;;;;;;;6.38;2.00;;;13.00;79.50;;;;;;5039213;28;20022;-88
2023/01/05 08:28:24;;;;;;;6.15;2.40;;;13.00;79.60;;;;;;5055222;28;20029;-88
2023/01/05 08:30:50;;;;;;;5.93;1.98;;;13.00;79.60;;;;;;5038859;28;20021;-89
2023/01/05 08:33:16;;;;;;;5.28;2.00;;;13.10;79.60;;;;;;5056327;28;20099;-88
2023/01/05 08:35:44;;;;;;;5.68;2.05;;;13.00;79.50;;;;;;5072260;28;20032;-91
2023/01/05 08:38:13;;;;;;;5.15;2.13;;;13.00;79.50;;;;;;5055826;28;20037;-92
2023/01/05 08:40:38;;;;;;;9.27;2.83;;;13.00;79.50;;;;;;5038689;28;20057;-94
2023/01/05 08:43:05;;;;;;;7.18;2.78;;;13.00;79.50;;;;;;5056329;28;20033;-87
2023/01/05 08:45:34;;;;;;;4.50;1.60;;;13.10;79.60;;;;;;5055423;28;20075;-86
2023/01/05 08:48:01;;;;;;;6.05;2.13;;;13.10;79.60;;;;;;5055543;28;20386;-86
2023/01/05 08:50:26;;;;;;;6.85;2.42;;;13.10;79.60;;;;;;5054904;28;20013;-86
2023/01/05 08:52:54;;;;;;;5.70;2.13;;;13.10;79.50;;;;;;5071446;28;20037;-89
2023/01/05 08:55:20;;;;;;;5.75;1.98;;;13.10;79.50;;;;;;5088677;28;20112;-85
2023/01/05 08:57:46;;;;;;;7.10;2.20;;;13.10;79.50;;;;;;5055175;28;20100;-89
2023/01/05 09:00:13;;;;;;;4.47;1.90;;;13.10;79.50;;;;;;5088408;28;20045;-87
2023/01/05 09:02:38;;;;;;;7.18;2.22;;;13.10;79.50;;;;;;5072368;28;20116;-92
2023/01/05 09:05:05;;;;;;;5.68;2.03;;;13.10;79.50;;;;;;5071411;28;20057;-90
2023/01/05 09:07:30;;;;;;;6.57;2.20;;;13.10;79.50;;;;;;5054977;28;20029;-90
2023/01/05 09:09:56;;;;;;;3.75;2.15;;;13.10;79.50;;;;;;5054894;28;20029;-90
2023/01/05 09:12:22;;;;;;;4.45;1.60;;;13.10;79.50;;;;;;5038555;28;20139;-89
2023/01/05 09:14:48;;;;;;;6.25;2.33;;;13.10;79.50;;;;;;5071077;28;20036;-88
2023/01/05 09:17:13;;;;;;;6.25;2.55;;;13.10;79.50;;;;;;5071234;28;20029;-87
2023/01/05 09:19:39;;;;;;;6.28;2.10;;;13.10;79.50;;;;;;5042193;28;20028;-89
2023/01/05 09:22:09;;;;;;;5.40;2.17;;;13.10;79.50;;;;;;5047954;28;20029;-90
2023/01/05 09:24:35;;;;;;;3.67;1.80;;;13.10;79.50;;;;;;5064789;28;20032;-90
2023/01/05 09:27:02;;;;;;;5.57;1.73;;;13.10;79.50;;;;;;5055555;28;20021;-89
2023/01/05 09:29:28;;;;;;;4.68;1.80;;;13.10;79.50;;;;;;5054811;28;20585;-89
2023/01/05 09:31:54;;;;;;;4.38;1.60;;;13.10;79.50;;;;;;5054411;28;20133;-89
2023/01/05 09:34:20;;;;;;;4.65;2.25;;;13.10;79.50;;;;;;5037824;28;20033;-89
2023/01/05 09:36:46;;;;;;;4.85;1.95;;;13.10;79.50;;;;;;5053594;28;20032;-89
2023/01/05 09:39:12;;;;;;;5.97;2.28;;;13.10;79.50;;;;;;5054449;28;20037;-86
2023/01/05 09:41:45;;;;;;;4.05;2.25;;;13.10;79.50;;;;;;5037676;28;20087;-86
2023/01/05 09:44:35;;;;;;;5.75;2.00;;;13.10;79.50;;;;;;5054331;28;20051;-87
2023/01/05 09:47:23;;;;;;;4.05;1.90;;;13.10;79.50;;;;;;5053655;28;20029;-85
2023/01/05 09:49:49;;;;;;;6.05;1.60;;;13.10;79.40;;;;;;5053340;28;20024;-85
2023/01/05 09:52:19;;;;;;;6.90;2.33;;;13.10;80.00;;;;;;5073390;28;20060;-85
2023/01/05 09:54:44;;;;;;;5.07;2.20;;;13.20;79.50;;;;;;5053694;28;20032;-83
2023/01/05 09:57:18;;;;;;;3.67;1.80;;;13.10;79.50;;;;;;5070633;28;20037;-83
2023/01/05 09:59:48;;;;;;;5.93;2.22;;;13.10;79.50;;;;;;5053447;28;20056;-83
2023/01/05 10:02:37;;;;;;;5.00;2.17;;;13.10;79.50;;;;;;5053200;28;20025;-81
2023/01/05 10:05:04;;;;;;;5.18;1.88;;;13.10;79.50;;;;;;5059234;28;20032;-83
2023/01/05 10:07:45;;;;;;;4.10;1.88;;;13.20;79.50;;;;;;5056128;28;20078;-84
2023/01/05 10:10:25;;;;;;;3.30;1.83;;;13.20;79.50;;;;;;5090070;28;20029;-84
2023/01/05 10:13:01;;;;;;;3.83;1.80;;;13.20;79.50;;;;;;5056139;28;20027;-84
2023/01/05 10:15:39;;;;;;;4.13;1.92;;;13.20;79.50;;;;;;5070494;28;20442;-82
2023/01/05 10:18:23;;;;;;;4.05;1.88;;;13.20;79.50;;;;;;5052572;28;20049;-84
2023/01/05 10:21:19;;;;;;;6.90;2.40;;;13.20;79.50;;;;;;5064705;28;20025;-82
2023/01/05 10:24:08;;;;;;;2.42;1.42;;;13.20;79.50;;;;;;5052814;28;20037;-84
2023/01/05 10:26:45;;;;;;;3.97;1.70;;;13.20;79.50;;;;;;5053068;28;20049;-84
2023/01/05 10:29:44;;;;;;;6.32;2.20;;;13.20;79.50;;;;;;5070213;28;20381;-84
2023/01/05 10:32:24;;;;;;;4.00;1.88;;;13.20;79.50;;;;;;5053608;28;20124;-84
2023/01/05 10:35:18;;;;;;;4.95;1.73;;;13.20;79.50;;;;;;5054065;28;20029;-84
2023/01/05 10:38:04;;;;;;;4.60;2.00;;;13.20;79.50;;;;;;5053349;28;20043;-84
2023/01/05 10:40:51;;;;;;;6.43;2.45;;;13.20;79.50;;;;;;5086887;28;20025;-86
2023/01/05 10:43:41;;;;;;;5.15;1.95;;;13.20;79.50;;;;;;5052800;28;20033;-84
2023/01/05 10:46:10;;;;;;;5.82;2.00;;;13.20;79.50;;;;;;5070457;28;20083;-84
2023/01/05 10:48:36;;;;;;;6.57;2.10;;;13.20;79.40;;;;;;5037054;28;20029;-84
2023/01/05 10:51:03;;;;;;;3.95;1.90;;;13.20;79.40;;;;;;5052618;28;20033;-84
2023/01/05 10:53:34;;;;;;;6.78;2.35;;;13.20;79.50;;;;;;5052975;28;20025;-84
2023/01/05 10:56:12;;;;;;;3.90;1.67;;;13.20;79.50;;;;;;5053077;28;20036;-85
2023/01/05 10:58:41;;;;;;;4.80;1.90;;;13.30;79.50;;;;;;5052339;28;20402;-84
2023/01/05 11:01:20;;;;;;;4.32;2.35;;;13.30;79.50;;;;;;5053049;28;20082;-83
2023/01/05 11:03:47;;;;;;;6.47;2.25;;;13.30;79.50;;;;;;5069117;28;20032;-84
2023/01/05 11:06:25;;;;;;;5.75;2.10;;;13.30;79.50;;;;;;5052288;28;20462;-84
2023/01/05 11:09:03;;;;;;;3.45;1.70;;;13.30;79.50;;;;;;5069609;28;20472;-83
2023/01/05 11:11:28;;;;;;;4.20;1.83;;;13.30;79.50;;;;;;5037559;28;20067;-83
2023/01/05 11:13:56;;;;;;;4.60;1.98;;;13.30;79.40;;;;;;5069173;28;20032;-84
2023/01/05 11:16:26;;;;;;;5.78;2.60;;;13.30;79.40;;;;;;5069255;28;20545;-84
2023/01/05 11:18:56;;;;;;;5.00;2.17;;;13.30;79.40;;;;;;5085802;28;20072;-84
2023/01/05 11:21:47;;;;;;;6.93;2.28;;;13.30;79.40;;;;;;5069693;28;20025;-85
2023/01/05 11:24:33;;;;;;;3.78;1.80;;;13.30;79.40;;;;;;5051886;28;20037;-85
2023/01/05 11:27:20;;;;;;;5.25;1.90;;;13.30;79.40;;;;;;5069096;28;20037;-84
2023/01/05 11:30:15;;;;;;;5.20;2.00;;;13.40;79.40;;;;;;5053072;28;20029;-85
2023/01/05 11:32:44;;;;;;;5.20;2.07;;;13.30;79.40;;;;;;5056914;28;20083;-84
2023/01/05 11:35:26;;;;;;;4.40;2.25;;;13.40;79.40;;;;;;5056519;28;20276;-85
2023/01/05 11:37:52;;;;;;;4.35;1.85;;;13.40;79.40;;;;;;5056625;28;20025;-84
2023/01/05 11:40:20;;;;;;;4.85;1.85;;;13.40;79.40;;;;;;5072707;28;20033;-85
2023/01/05 11:42:46;;;;;;;4.95;1.88;;;13.40;79.40;;;;;;5040093;28;20537;-85
2023/01/05 11:45:23;;;;;;;6.38;1.80;;;13.40;79.40;;;;;;5073579;28;20056;-85
2023/01/05 11:47:53;;;;;;;3.95;1.83;;;13.40;79.50;;;;;;5055981;28;20033;-82
2023/01/05 11:50:25;;;;;;;5.88;2.17;;;13.40;79.50;;;;;;5056044;28;20055;-84
2023/01/05 11:52:56;;;;;;;5.18;2.03;;;13.40;79.40;;;;;;5056062;28;20025;-84
2023/01/05 11:55:22;;;;;;;5.22;1.85;;;13.40;79.40;;;;;;5072838;28;20025;-84
2023/01/05 11:57:50;;;;;;;6.00;1.77;;;13.40;79.40;;;;;;5056453;28;20032;-84
2023/01/05 12:00:52;;;;;;;4.90;2.05;;;13.50;79.50;;;;;;5072305;28;20048;-84
2023/01/05 12:03:38;;;;;;;7.25;2.17;;;13.40;79.50;;;;;;5056868;28;20039;-84
2023/01/05 12:06:18;;;;;;;;;;;13.50;79.50;;;;;;5056732;28;20029;-84
2023/01/05 12:09:01;;;;;;;3.00;1.55;;;13.40;79.30;;;;;;5056023;28;20012;-84
2023/01/05 12:11:35;;;;;;;6.00;2.05;;;13.50;79.40;;;;;;5055420;28;20033;-84
2023/01/05 12:14:04;;;;;;;4.35;2.00;;;13.50;79.40;;;;;;5055871;28;20396;-84
2023/01/05 12:16:33;;;;;;;7.93;2.50;;;13.50;79.40;;;;;;5055342;28;20025;-85
2023/01/05 12:19:10;;;;;;;5.65;2.10;;;13.50;79.50;;;;;;5055734;28;20036;-84
2023/01/05 12:21:57;;;;;;;3.92;1.75;;;13.50;79.50;;;;;;5055771;28;20040;-85
2023/01/05 12:24:47;;;;;;;6.40;2.25;;;13.50;79.50;;;;;;5072356;28;20055;-91
2023/01/05 12:27:37;;;;;;;6.20;2.60;;;13.50;79.60;;;;;;5055506;28;20047;-86
2023/01/05 12:30:29;;;;;;;6.32;2.45;;;13.50;79.60;;;;;;5056697;28;20112;-89
2023/01/05 12:32:58;;;;;;;7.05;2.80;;;13.50;79.50;;;;;;5054972;28;20091;-92
2023/01/05 12:35:53;;;;;;;7.20;2.47;;;13.60;79.50;;;;;;5056200;28;20031;-87
2023/01/05 12:38:39;;;;;;;7.63;2.45;;;13.60;79.50;;;;;;5055056;28;20037;-87
2023/01/05 12:41:20;;;;;;;5.95;2.45;;;13.70;79.50;;;;;;5055468;28;20025;-84
2023/01/05 12:44:13;;;;;;;7.82;2.55;;;13.70;79.50;;;;;;5056164;28;20075;-84
2023/01/05 12:47:07;;;;;;;5.72;2.35;;;13.70;79.50;;;;;;5056462;28;20029;-84
2023/01/05 12:50:00;;;;;;;8.38;2.63;;;13.70;79.40;;;;;;5055880;28;20120;-84
2023/01/05 12:52:39;;;;;;;4.95;2.15;;;13.70;79.40;;;;;;5060541;28;20116;-79
2023/01/05 12:55:20;;;;;;;6.75;2.40;;;13.80;79.40;;;;;;5088823;28;20032;-83
2023/01/05 12:57:51;;;;;;;7.55;2.92;;;13.80;79.50;;;;;;5055752;28;20041;-84
2023/01/05 13:00:18;;;;;;;5.53;2.33;;;13.80;79.50;;;;;;5071120;28;20130;-85
2023/01/05 13:02:52;;;;;;;5.53;2.17;;;13.70;79.40;;;;;;5054679;28;20029;-85
2023/01/05 13:05:30;;;;;;;7.20;2.22;;;13.80;79.40;;;;;;5055985;28;20465;-86
2023/01/05 13:08:16;;;;;;;5.57;2.22;;;13.80;79.40;;;;;;5055753;28;20123;-85
2023/01/05 13:10:51;;;;;;;5.75;2.33;;;13.80;79.40;;;;;;5054687;28;20098;-85
2023/01/05 13:13:23;;;;;;;5.82;2.50;;;13.90;79.40;;;;;;5054595;28;20028;-85
2023/01/05 13:16:01;;;;;;;3.88;2.20;;;13.90;79.40;;;;;;5054417;28;20052;-85
2023/01/05 13:18:29;;;;;;;5.60;2.00;;;13.90;79.40;;;;;;5088508;28;20037;-84
2023/01/05 13:21:00;;;;;;;5.03;2.00;;;13.90;79.30;;;;;;5054246;28;20032;-85
2023/01/05 13:23:34;;;;;;;5.68;2.13;;;13.90;79.30;;;;;;5054682;28;20029;-85
2023/01/05 13:26:09;;;;;;;3.67;1.98;;;14.00;79.30;;;;;;5054951;28;20033;-85
2023/01/05 13:28:36;;;;;;;6.07;2.35;;;14.00;79.30;;;;;;5055368;28;20044;-85
2023/01/05 13:31:19;;;;;;;6.47;2.30;;;14.00;79.20;;;;;;5037672;28;20457;-85
2023/01/05 13:34:10;;;;;;;5.32;2.33;;;14.00;79.20;;;;;;5055076;28;20033;-84
2023/01/05 13:37:11;;;;;;;4.25;2.10;;;14.00;79.30;;;;;;5055628;28;20468;-85
2023/01/05 13:40:14;;;;;;;4.65;2.33;;;14.00;79.30;;;;;;5055348;28;20037;-85
2023/01/05 13:42:48;;;;;;;4.53;2.10;;;14.00;79.30;;;;;;5054593;28;20037;-84
2023/01/05 13:45:23;;;;;;;6.25;2.20;;;14.00;79.20;;;;;;5055103;28;20021;-84
2023/01/05 13:47:49;;;;;;;;;;;14.10;79.30;;;;;;5055038;28;20036;-85
2023/01/05 13:50:49;;;;;;;3.63;1.90;;;14.00;79.10;;;;;;5070428;28;19954;-84
2023/01/05 13:53:24;;;;;;;2.90;1.73;;;14.10;79.20;;;;;;5069528;28;20076;-84
2023/01/05 13:56:01;;;;;;;;;;;14.00;79.20;;;;;;5070524;28;20017;-84
2023/01/05 13:58:27;;;;;;;3.90;2.00;;;14.00;79.10;;;;;;5053682;28;19917;-84
2023/01/05 14:00:53;;;;;;;5.30;2.40;;;14.10;79.20;;;;;;5054424;28;20040;-84
2023/01/05 14:03:25;;;;;;;4.20;1.70;;;14.10;79.20;;;;;;5036993;28;20493;-83
2023/01/05 14:05:57;;;;;;;4.68;1.85;;;14.10;79.30;;;;;;5053534;28;20029;-84
2023/01/05 14:08:26;;;;;;;4.88;2.20;;;14.10;79.30;;;;;;5053684;28;20039;-84
2023/01/05 14:11:09;;;;;;;3.40;1.80;;;14.10;79.30;;;;;;5053609;28;20476;-84